createdAt,value
2023-03-10T06:19:48.777Z,8.65
2023-03-10T06:29:48.886Z,9.82
2023-03-10T06:39:48.877Z,9.53
2023-03-10T06:49:48.904Z,9.29
2023-03-10T06:59:48.868Z,8.78
2023-03-10T07:09:48.788Z,10.61
2023-03-10T07:19:48.974Z,10.81
2023-03-10T07:29:48.985Z,11.82
2023-03-10T07:39:48.930Z,12.37
2023-03-10T07:49:48.848Z,11.45
2023-03-10T07:59:48.855Z,11.44
2023-03-10T08:09:48.975Z,11.63
2023-03-10T08:19:49.026Z,11.60
2023-03-10T08:29:48.783Z,11.13
2023-03-10T08:39:49.012Z,10.93
2023-03-10T08:49:49.100Z,11.13
2023-03-10T08:59:48.965Z,11.03
2023-03-10T09:09:49.118Z,11.77
2023-03-10T09:19:48.886Z,12.11
2023-03-10T09:29:48.849Z,11.52
2023-03-10T09:39:49.029Z,12.77
2023-03-10T09:49:50.687Z,12.15
2023-03-10T09:59:49.093Z,13.67
2023-03-10T10:09:49.006Z,14.78
2023-03-10T10:19:48.950Z,13.41
2023-03-10T10:29:49.126Z,13.08
2023-03-10T10:39:48.972Z,11.51
2023-03-10T10:49:48.840Z,10.96
2023-03-10T10:59:49.103Z,15.60
2023-03-10T11:09:49.086Z,14.82
2023-03-10T11:19:48.828Z,15.85
2023-03-10T11:29:49.053Z,17.54
2023-03-10T11:39:49.153Z,16.08
2023-03-10T11:49:49.132Z,17.17
2023-03-10T11:59:48.986Z,17.34
2023-03-10T12:09:48.803Z,17.07
2023-03-10T12:19:49.112Z,14.07
2023-03-10T12:29:48.836Z,16.68
2023-03-10T12:39:48.760Z,17.65
2023-03-10T12:49:48.910Z,16.04
2023-03-10T12:59:48.965Z,10.56
2023-03-10T13:09:48.844Z,13.10
2023-03-10T13:19:49.099Z,12.71
2023-03-10T13:29:48.952Z,10.49
2023-03-10T13:39:48.919Z,11.95
2023-03-10T13:49:48.892Z,13.36
2023-03-10T13:59:48.778Z,14.60
2023-03-10T14:09:49.053Z,18.10
2023-03-10T14:19:48.983Z,19.12
2023-03-10T14:29:48.869Z,15.91
2023-03-10T14:39:48.918Z,16.20
2023-03-10T14:49:48.950Z,15.15
2023-03-10T14:59:48.928Z,12.01
2023-03-10T15:09:52.575Z,19.19
2023-03-10T15:19:48.853Z,15.83
2023-03-10T15:29:48.793Z,17.15
2023-03-10T15:39:48.866Z,10.29
2023-03-10T15:49:48.942Z,17.31
2023-03-10T15:59:49.016Z,19.17
2023-03-10T16:09:49.096Z,16.66
2023-03-10T16:19:48.932Z,16.01
2023-03-10T16:29:48.910Z,17.12
2023-03-10T16:39:48.853Z,16.85
2023-03-10T16:49:48.863Z,16.57
2023-03-10T16:59:48.980Z,19.20
2023-03-10T17:09:48.860Z,19.78
2023-03-10T17:19:48.908Z,16.89
2023-03-10T17:29:48.875Z,19.65
2023-03-10T17:39:48.838Z,20.31
2023-03-10T17:49:49.205Z,10.12
2023-03-10T17:59:49.071Z,4.28
2023-03-10T18:09:49.164Z,10.83
2023-03-10T18:19:48.996Z,14.22
2023-03-10T18:29:49.272Z,14.54
2023-03-10T18:39:49.116Z,14.33
2023-03-10T18:49:49.237Z,14.87
2023-03-10T18:59:49.282Z,12.90
2023-03-10T19:09:49.217Z,14.31
2023-03-10T19:19:49.076Z,16.27
